sensor_id;sensor_type;location;lat;lon;timestamp;pressure;altitude;pressure_sealevel;temperature;humidity
50774;BME280;36745;48.544;8.918;2023-04-04T00:03:05;98066.63;;;1.30;56.69
50774;BME280;36745;48.544;8.918;2023-04-04T00:06:25;98070.22;;;1.14;57.23
50774;BME280;36745;48.544;8.918;2023-04-04T00:09:45;98063.44;;;1.24;57.48
50774;BME280;36745;48.544;8.918;2023-04-04T00:13:04;98065.66;;;1.18;57.67
50774;BME280;36745;48.544;8.918;2023-04-04T00:16:26;98051.50;;;1.09;58.08
50774;BME280;36745;48.544;8.918;2023-04-04T00:19:45;98059.94;;;1.04;57.90
50774;BME280;36745;48.544;8.918;2023-04-04T00:23:05;98046.16;;;0.94;58.18
50774;BME280;36745;48.544;8.918;2023-04-04T00:26:25;98045.53;;;1.00;58.21
50774;BME280;36745;48.544;8.918;2023-04-04T00:29:45;98038.38;;;0.92;58.63
50774;BME280;36745;48.544;8.918;2023-04-04T00:33:05;98034.97;;;0.95;58.34
50774;BME280;36745;48.544;8.918;2023-04-04T00:36:25;98042.25;;;0.91;58.72
50774;BME280;36745;48.544;8.918;2023-04-04T00:39:44;98034.25;;;0.79;59.03
50774;BME280;36745;48.544;8.918;2023-04-04T00:43:04;98036.84;;;0.72;59.01
50774;BME280;36745;48.544;8.918;2023-04-04T00:46:24;98031.75;;;0.70;59.10
50774;BME280;36745;48.544;8.918;2023-04-04T00:49:45;98030.41;;;0.61;59.81
50774;BME280;36745;48.544;8.918;2023-04-04T00:53:04;98025.63;;;0.54;59.27
50774;BME280;36745;48.544;8.918;2023-04-04T00:56:24;98028.13;;;0.43;59.93
50774;BME280;36745;48.544;8.918;2023-04-04T00:59:44;98025.28;;;0.36;60.15
50774;BME280;36745;48.544;8.918;2023-04-04T01:03:04;98029.28;;;0.43;60.29
50774;BME280;36745;48.544;8.918;2023-04-04T01:06:26;98016.13;;;0.25;60.55
50774;BME280;36745;48.544;8.918;2023-04-04T01:09:47;98019.81;;;0.17;61.19
50774;BME280;36745;48.544;8.918;2023-04-04T01:13:07;98016.31;;;0.17;61.03
50774;BME280;36745;48.544;8.918;2023-04-04T01:16:27;98015.28;;;0.21;61.40
50774;BME280;36745;48.544;8.918;2023-04-04T01:20:06;98006.34;;;0.21;61.46
50774;BME280;36745;48.544;8.918;2023-04-04T01:24:00;98008.69;;;0.03;61.63
50774;BME280;36745;48.544;8.918;2023-04-04T01:27:20;98002.25;;;0.11;61.45
50774;BME280;36745;48.544;8.918;2023-04-04T01:30:41;98002.25;;;0.11;61.20
50774;BME280;36745;48.544;8.918;2023-04-04T01:34:27;98012.69;;;0.09;61.24
50774;BME280;36745;48.544;8.918;2023-04-04T01:41:41;98005.81;;;-0.04;61.74
50774;BME280;36745;48.544;8.918;2023-04-04T01:45:03;98002.81;;;0.01;61.29
50774;BME280;36745;48.544;8.918;2023-04-04T01:48:24;98005.97;;;0.03;61.20
50774;BME280;36745;48.544;8.918;2023-04-04T01:51:44;98002.69;;;-0.06;61.42
50774;BME280;36745;48.544;8.918;2023-04-04T01:55:04;98008.88;;;-0.06;61.17
50774;BME280;36745;48.544;8.918;2023-04-04T01:58:24;98007.66;;;-0.08;61.04
50774;BME280;36745;48.544;8.918;2023-04-04T02:01:44;98011.59;;;-0.06;61.19
50774;BME280;36745;48.544;8.918;2023-04-04T02:05:04;98008.09;;;-0.06;60.68
50774;BME280;36745;48.544;8.918;2023-04-04T02:08:24;98013.28;;;-0.17;61.15
50774;BME280;36745;48.544;8.918;2023-04-04T02:11:44;98008.50;;;-0.04;60.95
50774;BME280;36745;48.544;8.918;2023-04-04T02:15:04;98011.75;;;0.02;60.38
50774;BME280;36745;48.544;8.918;2023-04-04T02:18:24;98012.53;;;0.02;60.24
50774;BME280;36745;48.544;8.918;2023-04-04T02:21:44;98015.50;;;-0.03;60.18
50774;BME280;36745;48.544;8.918;2023-04-04T02:25:04;98012.50;;;-0.17;60.56
50774;BME280;36745;48.544;8.918;2023-04-04T02:28:27;98005.66;;;-0.11;60.52
50774;BME280;36745;48.544;8.918;2023-04-04T02:31:46;98006.19;;;-0.21;60.80
50774;BME280;36745;48.544;8.918;2023-04-04T02:35:06;98008.13;;;-0.22;60.64
50774;BME280;36745;48.544;8.918;2023-04-04T02:38:26;98005.00;;;-0.39;60.72
50774;BME280;36745;48.544;8.918;2023-04-04T02:41:47;98007.53;;;-0.31;60.62
50774;BME280;36745;48.544;8.918;2023-04-04T02:45:07;98009.31;;;-0.38;60.91
50774;BME280;36745;48.544;8.918;2023-04-04T02:48:27;98001.84;;;-0.42;60.89
50774;BME280;36745;48.544;8.918;2023-04-04T02:51:47;98000.22;;;-0.46;61.16
50774;BME280;36745;48.544;8.918;2023-04-04T02:55:07;97995.31;;;-0.40;61.10
50774;BME280;36745;48.544;8.918;2023-04-04T02:58:27;97996.16;;;-0.36;60.98
50774;BME280;36745;48.544;8.918;2023-04-04T03:01:46;97995.75;;;-0.38;60.60
50774;BME280;36745;48.544;8.918;2023-04-04T03:05:06;97985.94;;;-0.27;60.59
50774;BME280;36745;48.544;8.918;2023-04-04T03:08:26;97993.03;;;-0.38;60.71
50774;BME280;36745;48.544;8.918;2023-04-04T03:11:46;97989.63;;;-0.35;61.00
50774;BME280;36745;48.544;8.918;2023-04-04T03:15:06;97995.75;;;-0.38;60.60
50774;BME280;36745;48.544;8.918;2023-04-04T03:18:26;97985.28;;;-0.56;60.91
50774;BME280;36745;48.544;8.918;2023-04-04T03:21:46;97986.06;;;-0.55;61.13
50774;BME280;36745;48.544;8.918;2023-04-04T03:25:07;97980.06;;;-0.49;60.92
50774;BME280;36745;48.544;8.918;2023-04-04T03:28:27;97985.59;;;-0.42;60.56
50774;BME280;36745;48.544;8.918;2023-04-04T03:31:47;97990.16;;;-0.46;60.48
50774;BME280;36745;48.544;8.918;2023-04-04T03:35:07;97989.84;;;-0.60;60.68
50774;BME280;36745;48.544;8.918;2023-04-04T03:38:27;97986.88;;;-0.70;61.26
50774;BME280;36745;48.544;8.918;2023-04-04T03:41:46;97984.69;;;-0.65;61.29
50774;BME280;36745;48.544;8.918;2023-04-04T03:45:07;97992.09;;;-0.62;61.10
50774;BME280;36745;48.544;8.918;2023-04-04T03:48:27;97987.66;;;-0.54;61.11
50774;BME280;36745;48.544;8.918;2023-04-04T03:51:47;97992.97;;;-0.58;60.77
50774;BME280;36745;48.544;8.918;2023-04-04T03:55:07;97988.50;;;-0.50;60.72
50774;BME280;36745;48.544;8.918;2023-04-04T03:58:27;97988.41;;;-0.54;60.79
50774;BME280;36745;48.544;8.918;2023-04-04T04:01:47;97994.09;;;-0.74;61.06
50774;BME280;36745;48.544;8.918;2023-04-04T04:05:07;97989.59;;;-0.70;61.06
50774;BME280;36745;48.544;8.918;2023-04-04T04:08:27;97997.19;;;-0.76;61.21
50774;BME280;36745;48.544;8.918;2023-04-04T04:11:47;97989.13;;;-0.72;61.48
50774;BME280;36745;48.544;8.918;2023-04-04T04:15:07;97994.09;;;-0.74;61.22
50774;BME280;36745;48.544;8.918;2023-04-04T04:18:27;97995.41;;;-0.84;61.31
50774;BME280;36745;48.544;8.918;2023-04-04T04:21:47;97994.09;;;-0.74;61.54
50774;BME280;36745;48.544;8.918;2023-04-04T04:25:07;97995.16;;;-0.79;61.67
50774;BME280;36745;48.544;8.918;2023-04-04T04:28:26;97999.69;;;-0.83;61.61
50774;BME280;36745;48.544;8.918;2023-04-04T04:31:46;97995.16;;;-0.95;61.56
50774;BME280;36745;48.544;8.918;2023-04-04T04:35:07;97995.41;;;-0.84;61.91
50774;BME280;36745;48.544;8.918;2023-04-04T04:38:27;97993.84;;;-0.85;62.01
50774;BME280;36745;48.544;8.918;2023-04-04T04:41:46;97987.75;;;-0.82;61.85
50774;BME280;36745;48.544;8.918;2023-04-04T04:45:08;97996.22;;;-0.83;61.70
50774;BME280;36745;48.544;8.918;2023-04-04T04:48:27;97999.97;;;-0.88;61.94
50774;BME280;36745;48.544;8.918;2023-04-04T04:51:47;98005.66;;;-0.77;61.84
50774;BME280;36745;48.544;8.918;2023-04-04T04:55:08;98002.06;;;-0.66;61.20
50774;BME280;36745;48.544;8.918;2023-04-04T04:58:27;97996.91;;;-0.71;61.86
50774;BME280;36745;48.544;8.918;2023-04-04T05:01:47;98006.16;;;-0.72;61.63
50774;BME280;36745;48.544;8.918;2023-04-04T05:05:07;97997.34;;;-0.69;61.42
50774;BME280;36745;48.544;8.918;2023-04-04T05:08:27;98013.16;;;-0.71;61.71
50774;BME280;36745;48.544;8.918;2023-04-04T05:11:47;98016.56;;;-0.74;61.85
50774;BME280;36745;48.544;8.918;2023-04-04T05:15:07;98014.28;;;-0.72;62.17
50774;BME280;36745;48.544;8.918;2023-04-04T05:18:27;98019.44;;;-0.82;62.03
50774;BME280;36745;48.544;8.918;2023-04-04T05:21:46;98019.72;;;-0.72;62.07
50774;BME280;36745;48.544;8.918;2023-04-04T05:25:06;98026.00;;;-0.68;62.25
50774;BME280;36745;48.544;8.918;2023-04-04T05:28:26;98021.97;;;-0.74;62.62
50774;BME280;36745;48.544;8.918;2023-04-04T05:31:46;98020.50;;;-0.71;62.64
50774;BME280;36745;48.544;8.918;2023-04-04T05:35:06;98022.69;;;-0.77;62.93
50774;BME280;36745;48.544;8.918;2023-04-04T05:38:25;98021.44;;;-0.64;62.34
50774;BME280;36745;48.544;8.918;2023-04-04T05:41:45;98015.34;;;-0.61;63.11
50774;BME280;36745;48.544;8.918;2023-04-04T05:45:06;98022.50;;;-0.53;62.55
50774;BME280;36745;48.544;8.918;2023-04-04T05:48:26;98016.28;;;-0.53;62.94
50774;BME280;36745;48.544;8.918;2023-04-04T05:51:45;98018.47;;;-0.59;63.49
50774;BME280;36745;48.544;8.918;2023-04-04T05:55:05;98023.94;;;-0.24;62.70
50774;BME280;36745;48.544;8.918;2023-04-04T05:58:25;98021.47;;;-0.13;62.89
50774;BME280;36745;48.544;8.918;2023-04-04T06:01:45;98025.84;;;0.26;62.84
50774;BME280;36745;48.544;8.918;2023-04-04T06:05:06;98025.41;;;0.43;63.20
50774;BME280;36745;48.544;8.918;2023-04-04T06:08:25;98028.91;;;0.82;63.46
50774;BME280;36745;48.544;8.918;2023-04-04T06:11:45;98030.59;;;1.33;62.79
50774;BME280;36745;48.544;8.918;2023-04-04T06:15:05;98021.56;;;1.74;61.82
50774;BME280;36745;48.544;8.918;2023-04-04T06:18:25;98032.34;;;2.20;61.73
50774;BME280;36745;48.544;8.918;2023-04-04T06:21:45;98035.56;;;2.29;60.41
50774;BME280;36745;48.544;8.918;2023-04-04T06:25:05;98025.72;;;2.47;60.36
50774;BME280;36745;48.544;8.918;2023-04-04T06:28:25;98036.59;;;2.47;59.16
50774;BME280;36745;48.544;8.918;2023-04-04T06:31:45;98025.78;;;2.54;57.86
50774;BME280;36745;48.544;8.918;2023-04-04T06:35:05;98012.88;;;2.81;58.94
50774;BME280;36745;48.544;8.918;2023-04-04T06:38:25;98024.78;;;3.03;57.26
50774;BME280;36745;48.544;8.918;2023-04-04T06:41:45;98013.81;;;2.95;56.29
50774;BME280;36745;48.544;8.918;2023-04-04T06:45:06;98017.78;;;3.02;56.58
50774;BME280;36745;48.544;8.918;2023-04-04T06:48:26;98018.19;;;3.44;55.28
50774;BME280;36745;48.544;8.918;2023-04-04T06:51:46;98022.84;;;3.40;55.11
50774;BME280;36745;48.544;8.918;2023-04-04T06:55:09;98019.94;;;3.66;54.91
50774;BME280;36745;48.544;8.918;2023-04-04T06:58:29;98018.66;;;3.57;55.22
50774;BME280;36745;48.544;8.918;2023-04-04T07:01:48;98015.53;;;4.06;54.96
50774;BME280;36745;48.544;8.918;2023-04-04T07:05:08;98014.47;;;4.21;54.07
50774;BME280;36745;48.544;8.918;2023-04-04T07:08:29;98011.63;;;4.03;51.90
50774;BME280;36745;48.544;8.918;2023-04-04T07:11:49;98004.66;;;4.09;52.99
50774;BME280;36745;48.544;8.918;2023-04-04T07:15:09;98010.19;;;4.20;50.65
50774;BME280;36745;48.544;8.918;2023-04-04T07:18:29;98004.38;;;3.70;49.54
50774;BME280;36745;48.544;8.918;2023-04-04T07:21:49;98016.44;;;3.66;50.80
50774;BME280;36745;48.544;8.918;2023-04-04T07:25:09;98010.84;;;3.52;50.31
50774;BME280;36745;48.544;8.918;2023-04-04T07:28:30;98010.91;;;4.13;51.39
50774;BME280;36745;48.544;8.918;2023-04-04T07:31:50;98007.88;;;4.26;49.77
50774;BME280;36745;48.544;8.918;2023-04-04T07:35:09;98006.34;;;4.32;50.54
50774;BME280;36745;48.544;8.918;2023-04-04T07:38:29;98006.53;;;4.78;50.60
50774;BME280;36745;48.544;8.918;2023-04-04T07:41:49;98003.47;;;5.04;49.78
50774;BME280;36745;48.544;8.918;2023-04-04T07:45:09;98007.44;;;5.17;49.54
50774;BME280;36745;48.544;8.918;2023-04-04T07:48:29;98010.97;;;5.46;48.76
50774;BME280;36745;48.544;8.918;2023-04-04T07:51:48;98016.00;;;5.12;48.27
50774;BME280;36745;48.544;8.918;2023-04-04T07:55:08;98020.63;;;4.94;47.32
50774;BME280;36745;48.544;8.918;2023-04-04T07:58:28;98013.94;;;4.74;47.96
50774;BME280;36745;48.544;8.918;2023-04-04T08:01:48;98018.28;;;4.89;47.67
50774;BME280;36745;48.544;8.918;2023-04-04T08:05:08;98008.94;;;5.04;48.21
50774;BME280;36745;48.544;8.918;2023-04-04T08:08:27;98010.94;;;5.18;47.10
50774;BME280;36745;48.544;8.918;2023-04-04T08:11:47;98005.88;;;5.23;48.11
50774;BME280;36745;48.544;8.918;2023-04-04T08:15:08;98008.25;;;5.49;47.62
50774;BME280;36745;48.544;8.918;2023-04-04T08:18:28;98019.19;;;5.88;47.91
50774;BME280;36745;48.544;8.918;2023-04-04T08:21:47;98018.38;;;6.30;46.71
50774;BME280;36745;48.544;8.918;2023-04-04T08:25:08;98008.22;;;6.06;46.13
50774;BME280;36745;48.544;8.918;2023-04-04T08:28:29;98014.47;;;6.10;46.54
50774;BME280;36745;48.544;8.918;2023-04-04T08:31:49;98007.47;;;6.09;46.37
50774;BME280;36745;48.544;8.918;2023-04-04T08:35:09;98012.13;;;5.63;45.19
50774;BME280;36745;48.544;8.918;2023-04-04T08:38:29;98011.38;;;5.94;45.06
50774;BME280;36745;48.544;8.918;2023-04-04T08:41:52;98010.59;;;5.90;45.40
50774;BME280;36745;48.544;8.918;2023-04-04T08:45:16;98016.44;;;5.85;44.72
50774;BME280;36745;48.544;8.918;2023-04-04T08:48:38;98007.41;;;6.30;45.13
50774;BME280;36745;48.544;8.918;2023-04-04T08:52:00;98002.63;;;6.63;45.36
50774;BME280;36745;48.544;8.918;2023-04-04T08:55:21;98002.56;;;6.70;44.16
50774;BME280;36745;48.544;8.918;2023-04-04T08:58:41;98011.94;;;6.76;44.42
50774;BME280;36745;48.544;8.918;2023-04-04T09:02:16;98011.06;;;7.00;43.68
50774;BME280;36745;48.544;8.918;2023-04-04T09:05:37;98011.84;;;6.97;42.81
50774;BME280;36745;48.544;8.918;2023-04-04T09:08:58;98010.19;;;7.14;41.30
50774;BME280;36745;48.544;8.918;2023-04-04T09:12:19;98008.16;;;6.45;41.78
50774;BME280;36745;48.544;8.918;2023-04-04T09:15:44;98012.75;;;6.69;43.42
50774;BME280;36745;48.544;8.918;2023-04-04T09:19:04;97996.75;;;7.34;42.30
50774;BME280;36745;48.544;8.918;2023-04-04T09:22:25;98002.50;;;7.53;42.00
50774;BME280;36745;48.544;8.918;2023-04-04T09:25:47;97999.28;;;8.07;42.93
50774;BME280;36745;48.544;8.918;2023-04-04T09:29:07;97998.44;;;8.13;42.00
50774;BME280;36745;48.544;8.918;2023-04-04T09:32:27;98007.31;;;8.69;40.48
50774;BME280;36745;48.544;8.918;2023-04-04T09:35:53;98003.63;;;8.45;41.20
50774;BME280;36745;48.544;8.918;2023-04-04T09:39:13;98001.47;;;8.22;40.42
50774;BME280;36745;48.544;8.918;2023-04-04T09:42:36;98000.56;;;7.47;39.40
50774;BME280;36745;48.544;8.918;2023-04-04T09:45:56;98004.56;;;7.39;40.95
50774;BME280;36745;48.544;8.918;2023-04-04T09:49:20;98007.03;;;8.19;40.74
50774;BME280;36745;48.544;8.918;2023-04-04T09:52:42;98001.69;;;9.87;41.31
50774;BME280;36745;48.544;8.918;2023-04-04T09:56:03;97999.41;;;10.28;39.94
50774;BME280;36745;48.544;8.918;2023-04-04T09:59:23;97995.75;;;10.55;39.22
50774;BME280;36745;48.544;8.918;2023-04-04T10:02:46;98015.91;;;10.51;36.74
50774;BME280;36745;48.544;8.918;2023-04-04T10:06:06;98000.47;;;9.64;36.16
50774;BME280;36745;48.544;8.918;2023-04-04T10:09:27;98001.53;;;9.94;37.54
50774;BME280;36745;48.544;8.918;2023-04-04T10:12:46;97988.19;;;10.59;36.78
50774;BME280;36745;48.544;8.918;2023-04-04T10:16:06;97992.69;;;10.06;36.23
50774;BME280;36745;48.544;8.918;2023-04-04T10:19:26;97987.06;;;11.64;37.02
50774;BME280;36745;48.544;8.918;2023-04-04T10:22:47;97989.91;;;9.83;35.20
50774;BME280;36745;48.544;8.918;2023-04-04T10:26:06;97987.19;;;11.93;36.60
50774;BME280;36745;48.544;8.918;2023-04-04T10:29:26;97994.88;;;10.18;34.94
50774;BME280;36745;48.544;8.918;2023-04-04T10:32:57;97977.56;;;11.49;34.82
50774;BME280;36745;48.544;8.918;2023-04-04T10:36:29;97976.75;;;12.29;35.48
50774;BME280;36745;48.544;8.918;2023-04-04T10:40:04;97976.28;;;12.88;35.11
50774;BME280;36745;48.544;8.918;2023-04-04T10:43:31;97988.66;;;11.81;32.71
50774;BME280;36745;48.544;8.918;2023-04-04T10:46:52;97982.28;;;10.96;33.93
50774;BME280;36745;48.544;8.918;2023-04-04T10:50:12;97976.59;;;11.39;34.92
50774;BME280;36745;48.544;8.918;2023-04-04T10:53:34;97980.50;;;12.51;33.84
50774;BME280;36745;48.544;8.918;2023-04-04T10:56:56;97964.56;;;12.97;34.16
50774;BME280;36745;48.544;8.918;2023-04-04T11:00:20;97957.59;;;12.51;33.27
50774;BME280;36745;48.544;8.918;2023-04-04T11:04:17;97952.50;;;12.20;33.67
50774;BME280;36745;48.544;8.918;2023-04-04T11:07:39;97971.03;;;12.65;33.33
50774;BME280;36745;48.544;8.918;2023-04-04T11:10:58;97960.84;;;12.62;33.83
50774;BME280;36745;48.544;8.918;2023-04-04T11:14:28;97955.84;;;11.83;32.96
50774;BME280;36745;48.544;8.918;2023-04-04T11:21:09;97957.34;;;11.19;32.82
50774;BME280;36745;48.544;8.918;2023-04-04T11:24:29;97974.59;;;10.48;33.34
50774;BME280;36745;48.544;8.918;2023-04-04T11:27:53;97958.44;;;10.30;33.44
50774;BME280;36745;48.544;8.918;2023-04-04T11:34:41;97953.91;;;10.60;33.43
50774;BME280;36745;48.544;8.918;2023-04-04T11:38:01;97950.22;;;11.02;34.03
50774;BME280;36745;48.544;8.918;2023-04-04T11:41:21;97947.78;;;11.24;33.51
50774;BME280;36745;48.544;8.918;2023-04-04T11:48:15;97950.94;;;11.06;33.05
50774;BME280;36745;48.544;8.918;2023-04-04T11:51:39;97953.00;;;10.03;32.73
50774;BME280;36745;48.544;8.918;2023-04-04T11:55:01;97955.03;;;10.42;33.59
50774;BME280;36745;48.544;8.918;2023-04-04T11:58:20;97938.72;;;11.40;33.67
50774;BME280;36745;48.544;8.918;2023-04-04T12:01:40;97935.28;;;11.84;33.24
50774;BME280;36745;48.544;8.918;2023-04-04T12:05:00;97937.22;;;11.03;32.26
50774;BME280;36745;48.544;8.918;2023-04-04T12:08:21;97942.41;;;9.79;32.85
50774;BME280;36745;48.544;8.918;2023-04-04T12:11:42;97940.28;;;9.40;33.29
50774;BME280;36745;48.544;8.918;2023-04-04T12:15:05;97930.53;;;9.35;34.18
50774;BME280;36745;48.544;8.918;2023-04-04T12:18:25;97933.19;;;9.42;33.77
50774;BME280;36745;48.544;8.918;2023-04-04T12:21:46;97935.84;;;9.22;33.17
50774;BME280;36745;48.544;8.918;2023-04-04T12:25:06;97932.94;;;9.56;33.99
50774;BME280;36745;48.544;8.918;2023-04-04T12:28:26;97937.09;;;9.18;33.35
50774;BME280;36745;48.544;8.918;2023-04-04T12:31:46;97929.69;;;8.58;34.67
50774;BME280;36745;48.544;8.918;2023-04-04T12:35:09;97922.19;;;9.15;34.10
50774;BME280;36745;48.544;8.918;2023-04-04T12:38:28;97916.78;;;9.12;35.17
50774;BME280;36745;48.544;8.918;2023-04-04T12:42:02;97921.44;;;9.85;34.81
50774;BME280;36745;48.544;8.918;2023-04-04T12:45:25;97926.38;;;9.74;34.11
50774;BME280;36745;48.544;8.918;2023-04-04T12:48:44;97918.56;;;9.22;33.92
50774;BME280;36745;48.544;8.918;2023-04-04T12:55:35;97906.53;;;8.85;34.32
50774;BME280;36745;48.544;8.918;2023-04-04T12:59:02;97898.66;;;8.88;35.13
50774;BME280;36745;48.544;8.918;2023-04-04T13:02:23;97901.72;;;8.36;35.65
50774;BME280;36745;48.544;8.918;2023-04-04T13:05:45;97896.50;;;8.08;35.56
50774;BME280;36745;48.544;8.918;2023-04-04T13:09:05;97886.34;;;8.38;36.10
50774;BME280;36745;48.544;8.918;2023-04-04T13:12:26;97884.38;;;8.39;36.63
50774;BME280;36745;48.544;8.918;2023-04-04T13:15:50;97888.31;;;8.38;36.53
50774;BME280;36745;48.544;8.918;2023-04-04T13:19:10;97888.56;;;8.51;36.49
50774;BME280;36745;48.544;8.918;2023-04-04T13:22:36;97900.19;;;8.28;36.12
50774;BME280;36745;48.544;8.918;2023-04-04T13:25:56;97888.56;;;7.79;36.21
50774;BME280;36745;48.544;8.918;2023-04-04T13:29:18;97871.41;;;8.06;36.32
50774;BME280;36745;48.544;8.918;2023-04-04T13:32:37;97876.97;;;8.36;36.17
50774;BME280;36745;48.544;8.918;2023-04-04T13:35:57;97861.34;;;8.60;36.53
50774;BME280;36745;48.544;8.918;2023-04-04T13:39:17;97869.19;;;8.61;35.85
50774;BME280;36745;48.544;8.918;2023-04-04T13:42:37;97867.53;;;8.67;36.02
50774;BME280;36745;48.544;8.918;2023-04-04T13:45:57;97874.13;;;8.43;36.03
50774;BME280;36745;48.544;8.918;2023-04-04T13:49:17;97866.53;;;8.54;36.62
50774;BME280;36745;48.544;8.918;2023-04-04T13:52:36;97867.81;;;8.46;36.04
50774;BME280;36745;48.544;8.918;2023-04-04T13:55:56;97867.72;;;8.53;36.33
50774;BME280;36745;48.544;8.918;2023-04-04T13:59:16;97871.75;;;8.45;35.61
50774;BME280;36745;48.544;8.918;2023-04-04T14:02:36;97867.34;;;7.46;35.67
50774;BME280;36745;48.544;8.918;2023-04-04T14:05:56;97856.81;;;7.78;36.77
50774;BME280;36745;48.544;8.918;2023-04-04T14:09:16;97856.34;;;7.87;37.12
50774;BME280;36745;48.544;8.918;2023-04-04T14:12:36;97867.66;;;7.92;36.63
50774;BME280;36745;48.544;8.918;2023-04-04T14:15:56;97853.56;;;7.90;36.56
50774;BME280;36745;48.544;8.918;2023-04-04T14:19:16;97843.97;;;7.72;36.07
50774;BME280;36745;48.544;8.918;2023-04-04T14:22:36;97847.53;;;7.69;35.91
50774;BME280;36745;48.544;8.918;2023-04-04T14:25:59;97838.44;;;7.75;36.07
50774;BME280;36745;48.544;8.918;2023-04-04T14:29:19;97840.78;;;7.77;36.61
50774;BME280;36745;48.544;8.918;2023-04-04T14:32:39;97839.63;;;7.74;36.04
50774;BME280;36745;48.544;8.918;2023-04-04T14:35:59;97838.97;;;7.63;36.26
50774;BME280;36745;48.544;8.918;2023-04-04T14:39:18;97853.38;;;7.71;36.73
50774;BME280;36745;48.544;8.918;2023-04-04T14:42:38;97847.00;;;7.40;36.51
50774;BME280;36745;48.544;8.918;2023-04-04T14:45:58;97845.06;;;7.78;36.49
50774;BME280;36745;48.544;8.918;2023-04-04T14:49:18;97848.13;;;7.83;36.28
50774;BME280;36745;48.544;8.918;2023-04-04T14:52:38;97840.72;;;7.80;35.83
50774;BME280;36745;48.544;8.918;2023-04-04T14:55:58;97839.22;;;7.76;36.15
50774;BME280;36745;48.544;8.918;2023-04-04T14:59:18;97839.38;;;7.95;36.34
50774;BME280;36745;48.544;8.918;2023-04-04T15:02:38;97839.88;;;7.87;35.99
50774;BME280;36745;48.544;8.918;2023-04-04T15:05:58;97842.56;;;7.90;35.62
50774;BME280;36745;48.544;8.918;2023-04-04T15:09:17;97841.97;;;7.76;35.41
50774;BME280;36745;48.544;8.918;2023-04-04T15:12:37;97841.34;;;7.61;35.84
50774;BME280;36745;48.544;8.918;2023-04-04T15:15:57;97840.56;;;7.61;35.22
50774;BME280;36745;48.544;8.918;2023-04-04T15:19:18;97830.06;;;7.52;35.48
50774;BME280;36745;48.544;8.918;2023-04-04T15:22:38;97830.22;;;7.75;35.89
50774;BME280;36745;48.544;8.918;2023-04-04T15:25:59;97831.78;;;7.76;35.93
50774;BME280;36745;48.544;8.918;2023-04-04T15:29:19;97838.25;;;7.55;35.49
50774;BME280;36745;48.544;8.918;2023-04-04T15:32:39;97837.16;;;7.46;35.53
50774;BME280;36745;48.544;8.918;2023-04-04T15:35:59;97833.63;;;7.49;36.21
50774;BME280;36745;48.544;8.918;2023-04-04T15:39:18;97837.69;;;7.34;35.68
50774;BME280;36745;48.544;8.918;2023-04-04T15:42:38;97832.88;;;7.45;35.42
50774;BME280;36745;48.544;8.918;2023-04-04T15:45:58;97829.75;;;7.43;35.75
50774;BME280;36745;48.544;8.918;2023-04-04T15:49:18;97832.72;;;7.18;35.24
50774;BME280;36745;48.544;8.918;2023-04-04T15:52:38;97829.31;;;7.03;36.04
50774;BME280;36745;48.544;8.918;2023-04-04T15:55:58;97819.09;;;7.07;35.93
50774;BME280;36745;48.544;8.918;2023-04-04T15:59:18;97830.31;;;7.27;36.45
50774;BME280;36745;48.544;8.918;2023-04-04T16:02:37;97822.53;;;7.18;34.89
50774;BME280;36745;48.544;8.918;2023-04-04T16:05:57;97822.63;;;7.08;35.52
50774;BME280;36745;48.544;8.918;2023-04-04T16:09:19;97819.88;;;7.11;35.68
50774;BME280;36745;48.544;8.918;2023-04-04T16:12:39;97812.00;;;7.13;35.93
50774;BME280;36745;48.544;8.918;2023-04-04T16:15:59;97812.72;;;7.21;36.37
50774;BME280;36745;48.544;8.918;2023-04-04T16:19:19;97815.44;;;7.25;35.91
50774;BME280;36745;48.544;8.918;2023-04-04T16:22:39;97809.66;;;7.15;36.11
50774;BME280;36745;48.544;8.918;2023-04-04T16:25:59;97810.09;;;7.10;35.49
50774;BME280;36745;48.544;8.918;2023-04-04T16:29:19;97806.66;;;6.99;36.17
50774;BME280;36745;48.544;8.918;2023-04-04T16:32:39;97798.81;;;6.98;36.64
50774;BME280;36745;48.544;8.918;2023-04-04T16:36:00;97798.00;;;7.04;36.49
50774;BME280;36745;48.544;8.918;2023-04-04T16:43:30;97797.25;;;7.00;36.59
50774;BME280;36745;48.544;8.918;2023-04-04T16:46:50;97809.00;;;7.01;36.87
50774;BME280;36745;48.544;8.918;2023-04-04T16:50:10;97791.03;;;6.96;36.89
50774;BME280;36745;48.544;8.918;2023-04-04T16:53:30;97791.03;;;6.96;36.98
50774;BME280;36745;48.544;8.918;2023-04-04T16:56:49;97789.47;;;6.95;37.14
50774;BME280;36745;48.544;8.918;2023-04-04T17:00:09;97798.03;;;6.97;37.36
50774;BME280;36745;48.544;8.918;2023-04-04T17:03:29;97793.50;;;6.80;37.12
50774;BME280;36745;48.544;8.918;2023-04-04T17:06:49;97794.22;;;6.88;37.26
50774;BME280;36745;48.544;8.918;2023-04-04T17:10:09;97788.69;;;6.95;37.20
50774;BME280;36745;48.544;8.918;2023-04-04T17:13:29;97792.56;;;6.97;37.28
50774;BME280;36745;48.544;8.918;2023-04-04T17:16:49;97798.19;;;6.83;37.33
50774;BME280;36745;48.544;8.918;2023-04-04T17:20:11;97802.25;;;6.61;37.74
50774;BME280;36745;48.544;8.918;2023-04-04T17:23:37;97799.03;;;6.69;37.69
50774;BME280;36745;48.544;8.918;2023-04-04T17:26:56;97798.72;;;6.64;37.65
50774;BME280;36745;48.544;8.918;2023-04-04T17:30:16;97799.16;;;6.55;37.53
50774;BME280;36745;48.544;8.918;2023-04-04T17:33:36;97796.06;;;6.50;37.58
50774;BME280;36745;48.544;8.918;2023-04-04T17:36:56;97801.09;;;6.58;37.59
50774;BME280;36745;48.544;8.918;2023-04-04T17:40:16;97787.50;;;6.48;37.95
50774;BME280;36745;48.544;8.918;2023-04-04T17:43:36;97801.22;;;6.41;38.30
50774;BME280;36745;48.544;8.918;2023-04-04T17:46:56;97798.50;;;6.33;38.25
50774;BME280;36745;48.544;8.918;2023-04-04T17:50:16;97791.94;;;6.24;38.48
50774;BME280;36745;48.544;8.918;2023-04-04T17:53:35;97795.47;;;6.17;38.51
50774;BME280;36745;48.544;8.918;2023-04-04T17:56:55;97791.25;;;6.02;39.08
50774;BME280;36745;48.544;8.918;2023-04-04T18:00:16;97801.47;;;5.91;39.28
50774;BME280;36745;48.544;8.918;2023-04-04T18:03:35;97798.78;;;5.77;39.61
50774;BME280;36745;48.544;8.918;2023-04-04T18:06:56;97798.78;;;5.73;40.15
50774;BME280;36745;48.544;8.918;2023-04-04T18:10:15;97798.03;;;5.66;39.91
50774;BME280;36745;48.544;8.918;2023-04-04T18:13:36;97798.44;;;5.61;39.95
50774;BME280;36745;48.544;8.918;2023-04-04T18:16:56;97797.66;;;5.57;40.39